Time;durP1;ratioP1;P1;durP2;ratioP2;P2;SDS_P1;SDS_P2;PMS_P1;PMS_P2;Temp;Humidity;BMP_temperature;BMP_pressure;BME280_temperature;BME280_humidity;BME280_pressure;Samples;Min_cycle;Max_cycle;Signal;HPM_P1;HPM_P2
2020/12/10 00:02:05;;;;;;;24.40;17.50;;;5.50;91.60;;;;;;5017358;28;20025;-70
2020/12/10 00:04:31;;;;;;;24.92;17.33;;;5.40;91.50;;;;;;5018607;28;20103;-70
2020/12/10 00:06:56;;;;;;;24.75;16.98;;;5.30;91.40;;;;;;5035793;28;20041;-70
2020/12/10 00:09:22;;;;;;;25.83;16.60;;;5.20;91.40;;;;;;5035463;28;20022;-70
2020/12/10 00:11:48;;;;;;;25.05;15.10;;;5.00;91.50;;;;;;5018107;28;20029;-71
2020/12/10 00:14:13;;;;;;;23.25;16.25;;;4.90;91.60;;;;;;5035049;28;20022;-70
2020/12/10 00:16:39;;;;;;;23.67;16.20;;;4.80;91.70;;;;;;5036052;28;20458;-71
2020/12/10 00:19:05;;;;;;;22.35;16.65;;;4.70;91.90;;;;;;5035526;28;20390;-71
2020/12/10 00:21:30;;;;;;;26.65;17.30;;;4.60;91.90;;;;;;5035153;28;20095;-71
2020/12/10 00:23:56;;;;;;;25.60;16.55;;;4.40;92.00;;;;;;5035615;28;20045;-74
2020/12/10 00:26:22;;;;;;;25.58;16.02;;;4.30;92.10;;;;;;5036095;28;20442;-71
2020/12/10 00:28:47;;;;;;;28.10;17.08;;;4.20;92.20;;;;;;5035045;28;20044;-71
2020/12/10 00:31:13;;;;;;;26.67;17.08;;;4.10;92.30;;;;;;5018023;28;20421;-71
2020/12/10 00:33:39;;;;;;;22.20;15.98;;;4.00;92.40;;;;;;5017810;28;20060;-70
2020/12/10 00:36:05;;;;;;;24.67;17.15;;;3.90;92.50;;;;;;5014912;28;20080;-72
2020/12/10 00:38:30;;;;;;;28.17;17.08;;;3.80;92.60;;;;;;5018300;28;20022;-70
2020/12/10 00:40:56;;;;;;;25.80;17.67;;;3.80;92.80;;;;;;5017780;28;20078;-70
2020/12/10 00:43:21;;;;;;;24.58;17.48;;;3.80;93.00;;;;;;5034522;28;20492;-70
2020/12/10 00:45:47;;;;;;;26.77;17.70;;;3.80;93.00;;;;;;5035539;28;20026;-70
2020/12/10 00:48:14;;;;;;;29.38;18.48;;;3.90;93.00;;;;;;5035187;28;20029;-70
2020/12/10 00:50:40;;;;;;;28.38;18.38;;;3.90;93.00;;;;;;5016516;28;20100;-71
2020/12/10 00:53:05;;;;;;;30.05;18.58;;;3.90;93.00;;;;;;5017304;28;20048;-72
2020/12/10 00:55:31;;;;;;;29.48;18.65;;;3.80;93.00;;;;;;5027677;28;20478;-72
2020/12/10 00:57:56;;;;;;;25.00;17.35;;;3.80;93.00;;;;;;5014545;28;20110;-71
2020/12/10 01:00:23;;;;;;;26.17;17.75;;;3.80;92.90;;;;;;5015448;28;20033;-70
2020/12/10 01:02:48;;;;;;;26.27;17.73;;;3.70;92.90;;;;;;5015799;28;20038;-73
2020/12/10 01:05:14;;;;;;;25.25;17.73;;;3.60;92.90;;;;;;5014622;28;20128;-70
2020/12/10 01:07:40;;;;;;;30.05;18.90;;;3.50;92.90;;;;;;5022742;28;20033;-72
2020/12/10 01:10:06;;;;;;;26.80;17.85;;;3.40;93.00;;;;;;5034414;28;20381;-70
2020/12/10 01:12:32;;;;;;;26.08;17.65;;;3.40;93.10;;;;;;5015005;28;20018;-71
2020/12/10 01:14:58;;;;;;;25.90;17.80;;;3.30;93.10;;;;;;5034244;28;20026;-70
2020/12/10 01:17:23;;;;;;;30.75;19.23;;;3.30;93.20;;;;;;5035496;28;20024;-70
2020/12/10 01:19:49;;;;;;;29.00;18.08;;;3.30;93.20;;;;;;5034152;28;20104;-73
2020/12/10 01:22:14;;;;;;;24.80;17.17;;;3.30;93.30;;;;;;5034518;28;20351;-71
2020/12/10 01:24:40;;;;;;;27.55;20.02;;;3.20;93.30;;;;;;5034248;28;20088;-71
2020/12/10 01:27:05;;;;;;;25.55;18.55;;;3.20;93.30;;;;;;5034291;28;20042;-70
2020/12/10 01:29:31;;;;;;;28.23;18.25;;;3.20;93.30;;;;;;5017161;28;20038;-71
2020/12/10 01:31:56;;;;;;;29.20;18.42;;;3.20;93.30;;;;;;5033629;28;20022;-71
2020/12/10 01:34:22;;;;;;;27.90;18.40;;;3.10;93.40;;;;;;5035021;28;20029;-72
2020/12/10 01:36:47;;;;;;;28.98;18.75;;;3.10;93.50;;;;;;5034616;28;20026;-73
2020/12/10 01:39:13;;;;;;;25.75;18.80;;;3.10;93.50;;;;;;5033574;28;20017;-70
2020/12/10 01:41:39;;;;;;;30.33;19.77;;;3.10;93.50;;;;;;5034475;28;20033;-70
2020/12/10 01:44:08;;;;;;;26.75;19.75;;;3.10;93.50;;;;;;5034926;28;20097;-72
2020/12/10 01:46:35;;;;;;;29.15;19.63;;;3.10;93.60;;;;;;5033603;28;20043;-71
2020/12/10 01:49:05;;;;;;;30.88;19.17;;;3.00;93.60;;;;;;5034224;28;20021;-72
2020/12/10 01:51:31;;;;;;;32.33;21.27;;;3.00;93.70;;;;;;5016347;28;20367;-72
2020/12/10 01:54:01;;;;;;;32.17;20.48;;;3.00;93.70;;;;;;5033363;28;20100;-70
2020/12/10 01:56:27;;;;;;;30.88;21.63;;;3.00;93.80;;;;;;5035622;28;20029;-71
2020/12/10 01:58:53;;;;;;;30.35;19.85;;;3.00;93.80;;;;;;5016175;28;20033;-71
2020/12/10 02:01:19;;;;;;;33.40;21.23;;;3.00;93.90;;;;;;5015729;28;20074;-71
2020/12/10 02:03:45;;;;;;;30.83;22.00;;;2.90;94.20;;;;;;5016484;28;20482;-72
2020/12/10 02:06:10;;;;;;;33.50;20.98;;;2.90;93.90;;;;;;5034016;28;20534;-71
2020/12/10 02:08:40;;;;;;;34.30;22.30;;;2.90;93.80;;;;;;5033299;28;20033;-71
2020/12/10 02:11:12;;;;;;;31.80;21.42;;;2.80;93.70;;;;;;5015340;28;20367;-71
2020/12/10 02:13:38;;;;;;;;;;;2.80;93.70;;;;;;5034306;28;20025;-70
2020/12/10 02:16:05;;;;;;;31.13;20.77;;;2.70;93.60;;;;;;5015161;28;19913;-69
2020/12/10 02:18:30;;;;;;;32.40;19.88;;;2.60;93.60;;;;;;5034014;28;20148;-70
2020/12/10 02:20:56;;;;;;;34.10;22.20;;;2.50;93.60;;;;;;5032867;28;20036;-70
2020/12/10 02:23:21;;;;;;;31.08;20.15;;;2.40;93.70;;;;;;5033711;28;20095;-70
2020/12/10 02:25:47;;;;;;;29.80;19.60;;;2.40;93.70;;;;;;5033735;28;20092;-71
2020/12/10 02:28:15;;;;;;;32.45;20.63;;;2.30;93.80;;;;;;5014819;28;20056;-72
2020/12/10 02:30:42;;;;;;;31.42;20.02;;;2.30;93.80;;;;;;5033645;28;20029;-70
2020/12/10 02:33:09;;;;;;;32.75;21.80;;;2.20;93.90;;;;;;5033448;28;20022;-70
2020/12/10 02:35:37;;;;;;;32.08;21.70;;;2.20;93.90;;;;;;5015465;28;20021;-71
2020/12/10 02:38:05;;;;;;;30.88;20.40;;;2.10;93.90;;;;;;5033245;28;20022;-70
2020/12/10 02:40:34;;;;;;;33.40;21.42;;;2.10;93.90;;;;;;5034047;28;20021;-70
2020/12/10 02:43:00;;;;;;;30.20;19.25;;;2.10;94.00;;;;;;5014628;28;20030;-71
2020/12/10 02:45:26;;;;;;;33.78;21.00;;;2.00;94.00;;;;;;5033455;28;20025;-71
2020/12/10 02:47:52;;;;;;;33.10;21.67;;;2.00;94.10;;;;;;5033386;28;20029;-71
2020/12/10 02:50:19;;;;;;;37.08;21.42;;;2.00;94.20;;;;;;5032755;28;20021;-71
2020/12/10 02:52:44;;;;;;;34.67;22.83;;;1.90;94.20;;;;;;5015347;28;20022;-69
2020/12/10 02:55:10;;;;;;;34.53;20.98;;;2.00;94.40;;;;;;5033332;28;20100;-70
2020/12/10 02:57:36;;;;;;;35.97;21.42;;;1.90;94.30;;;;;;5032308;28;20030;-69
2020/12/10 03:00:06;;;;;;;34.17;21.45;;;1.90;94.30;;;;;;5015167;28;20021;-69
2020/12/10 03:02:32;;;;;;;34.78;21.20;;;1.90;94.30;;;;;;5032812;28;20032;-69
2020/12/10 03:04:57;;;;;;;34.08;21.67;;;1.90;94.30;;;;;;5032121;28;20374;-71
2020/12/10 03:07:23;;;;;;;33.78;21.27;;;1.80;94.30;;;;;;5015250;28;20104;-70
2020/12/10 03:09:49;;;;;;;35.15;21.65;;;1.80;94.30;;;;;;5032989;28;20471;-70
2020/12/10 03:12:14;;;;;;;31.27;20.35;;;1.80;94.30;;;;;;5014214;28;20116;-70
2020/12/10 03:14:40;;;;;;;34.88;21.40;;;1.80;94.40;;;;;;5033172;28;20053;-70
2020/12/10 03:17:05;;;;;;;33.83;19.73;;;1.80;94.30;;;;;;5032039;28;20029;-70
2020/12/10 03:19:31;;;;;;;34.92;20.73;;;1.70;94.30;;;;;;5032890;28;20028;-70
2020/12/10 03:21:57;;;;;;;36.65;21.83;;;1.70;94.30;;;;;;5032359;28;20055;-70
2020/12/10 03:24:22;;;;;;;31.95;20.52;;;1.70;94.30;;;;;;5032415;28;20029;-69
2020/12/10 03:26:48;;;;;;;34.25;22.10;;;1.60;94.30;;;;;;5032666;28;20029;-69
2020/12/10 03:29:13;;;;;;;31.95;20.13;;;1.60;94.30;;;;;;5032232;28;20056;-70
2020/12/10 03:31:39;;;;;;;35.15;21.85;;;1.50;94.40;;;;;;5032180;28;20029;-69
2020/12/10 03:34:05;;;;;;;36.30;21.33;;;1.50;94.30;;;;;;5032559;28;20029;-69
2020/12/10 03:36:54;;;;;;;30.10;19.55;;;1.50;94.30;;;;;;5032687;28;20030;-69
2020/12/10 03:39:21;;;;;;;34.97;20.45;;;1.50;94.30;;;;;;5032026;28;20022;-69
2020/12/10 03:41:47;;;;;;;30.27;20.10;;;1.40;94.30;;;;;;5014837;28;20079;-69
2020/12/10 03:44:13;;;;;;;32.72;19.90;;;1.40;94.30;;;;;;5032335;28;20542;-69
2020/12/10 03:46:40;;;;;;;32.28;20.02;;;1.40;94.30;;;;;;5031753;28;20112;-70
2020/12/10 03:49:06;;;;;;;31.20;19.83;;;1.30;94.30;;;;;;5032424;28;20017;-69
2020/12/10 03:51:32;;;;;;;32.63;18.40;;;1.40;94.40;;;;;;5032649;28;20398;-72
2020/12/10 03:53:57;;;;;;;32.30;18.95;;;1.30;94.70;;;;;;5031674;28;20077;-71
2020/12/10 03:56:23;;;;;;;33.60;20.90;;;1.30;94.50;;;;;;5014845;28;20504;-73
2020/12/10 03:58:48;;;;;;;33.50;19.83;;;1.30;94.50;;;;;;5032537;28;20026;-72
2020/12/10 04:01:14;;;;;;;32.33;19.30;;;1.30;94.60;;;;;;5031702;28;20025;-76
2020/12/10 04:03:40;;;;;;;31.35;19.08;;;1.30;94.60;;;;;;5032517;28;20432;-74
2020/12/10 04:06:05;;;;;;;30.75;19.98;;;1.30;94.60;;;;;;5014496;28;20038;-72
2020/12/10 04:08:31;;;;;;;32.60;19.88;;;1.30;94.60;;;;;;5014360;28;20463;-72
2020/12/10 04:10:56;;;;;;;35.17;20.10;;;1.30;94.60;;;;;;5014340;28;20033;-72
2020/12/10 04:13:22;;;;;;;30.45;20.23;;;1.30;94.60;;;;;;5014083;28;20137;-73
2020/12/10 04:15:47;;;;;;;35.50;19.70;;;1.30;94.60;;;;;;5032556;28;20021;-72
2020/12/10 04:18:13;;;;;;;36.95;20.98;;;1.40;94.70;;;;;;5032131;28;20025;-71
2020/12/10 04:20:38;;;;;;;35.83;21.15;;;1.40;94.60;;;;;;5031794;28;20029;-71
2020/12/10 04:23:04;;;;;;;34.67;22.38;;;1.40;94.70;;;;;;5031999;28;20029;-71
2020/12/10 04:25:29;;;;;;;39.80;23.83;;;1.40;94.70;;;;;;5032315;28;20030;-76
2020/12/10 04:27:55;;;;;;;36.22;22.45;;;1.50;94.80;;;;;;5031038;28;20119;-77
2020/12/10 04:30:21;;;;;;;37.00;23.30;;;1.50;94.80;;;;;;5032505;28;20113;-73
2020/12/10 04:32:50;;;;;;;36.38;22.30;;;1.60;94.70;;;;;;5032178;28;20037;-74
2020/12/10 04:35:15;;;;;;;38.58;23.00;;;1.60;94.70;;;;;;5033694;28;20029;-73
2020/12/10 04:37:41;;;;;;;39.05;23.67;;;1.60;94.70;;;;;;5035988;28;20034;-71
2020/12/10 04:40:07;;;;;;;36.10;23.52;;;1.60;94.70;;;;;;5035496;28;20509;-71
2020/12/10 04:42:33;;;;;;;36.63;22.55;;;1.60;94.60;;;;;;5034896;28;20029;-72
2020/12/10 04:44:59;;;;;;;40.00;23.27;;;1.50;94.60;;;;;;5035457;28;20105;-72
2020/12/10 04:47:28;;;;;;;34.58;22.52;;;1.50;94.60;;;;;;5035555;28;20030;-74
2020/12/10 04:49:55;;;;;;;33.03;22.23;;;1.50;94.50;;;;;;5034649;28;20025;-75
2020/12/10 04:52:22;;;;;;;39.60;23.20;;;1.40;94.50;;;;;;5017842;28;20370;-74
2020/12/10 04:54:48;;;;;;;34.85;22.52;;;1.40;94.50;;;;;;5017804;28;20034;-72
2020/12/10 04:57:16;;;;;;;35.22;22.77;;;1.40;94.50;;;;;;5034490;28;20029;-72
2020/12/10 04:59:42;;;;;;;39.30;22.60;;;1.30;94.50;;;;;;5035320;28;20028;-70
2020/12/10 05:02:12;;;;;;;35.30;22.25;;;1.30;94.50;;;;;;5034942;28;20026;-70
2020/12/10 05:04:41;;;;;;;33.47;20.45;;;1.20;94.50;;;;;;5016948;28;20013;-70
2020/12/10 05:07:06;;;;;;;35.20;22.05;;;1.20;94.60;;;;;;5034848;28;20037;-71
2020/12/10 05:09:33;;;;;;;33.83;21.52;;;1.20;94.60;;;;;;5034933;28;20020;-70
2020/12/10 05:11:59;;;;;;;34.58;21.55;;;1.10;94.60;;;;;;5034603;28;20109;-70
2020/12/10 05:14:24;;;;;;;36.35;23.17;;;1.10;94.60;;;;;;5035131;28;20435;-71
2020/12/10 05:17:13;;;;;;;34.30;22.55;;;1.10;94.70;;;;;;5034337;28;20108;-71
2020/12/10 05:19:39;;;;;;;35.80;21.08;;;1.10;94.70;;;;;;5035047;28;20101;-72
2020/12/10 05:22:06;;;;;;;37.55;23.15;;;1.10;94.60;;;;;;5016805;28;20116;-71
2020/12/10 05:24:32;;;;;;;39.08;24.45;;;1.10;94.60;;;;;;5034248;28;20029;-71
2020/12/10 05:27:32;;;;;;;41.60;22.83;;;1.00;94.60;;;;;;5034389;28;20095;-71
2020/12/10 05:29:57;;;;;;;41.42;23.40;;;1.00;94.70;;;;;;4991552;28;20056;-71
2020/12/10 05:32:42;;;;;;;36.33;22.80;;;1.00;94.70;;;;;;5033989;28;20393;-71
2020/12/10 05:35:13;;;;;;;35.85;21.60;;;1.00;94.70;;;;;;5016480;28;20037;-70
2020/12/10 05:37:40;;;;;;;34.55;21.02;;;1.00;94.70;;;;;;5034731;28;20029;-72
2020/12/10 05:40:06;;;;;;;38.05;22.38;;;1.00;94.80;;;;;;5034593;28;20028;-71
2020/12/10 05:42:36;;;;;;;42.40;22.92;;;1.00;94.80;;;;;;5016787;28;20025;-71
2020/12/10 05:45:11;;;;;;;37.13;22.10;;;1.00;94.80;;;;;;5015575;28;20032;-75
2020/12/10 05:47:59;;;;;;;38.53;22.58;;;0.90;94.80;;;;;;5034082;28;20137;-72
2020/12/10 05:50:26;;;;;;;37.42;22.23;;;0.90;94.80;;;;;;5034526;28;20028;-72
2020/12/10 05:52:55;;;;;;;35.90;21.67;;;0.90;94.80;;;;;;5033311;28;20377;-70
2020/12/10 05:55:20;;;;;;;33.83;21.42;;;0.90;94.80;;;;;;5034487;28;20032;-70
2020/12/10 05:57:46;;;;;;;35.55;22.67;;;0.90;94.80;;;;;;5016494;28;20025;-70
2020/12/10 06:00:12;;;;;;;33.53;21.88;;;0.90;94.80;;;;;;5033304;28;20033;-71
2020/12/10 06:02:40;;;;;;;37.75;22.77;;;0.90;94.80;;;;;;5034007;28;20021;-70
2020/12/10 06:05:06;;;;;;;38.00;23.40;;;0.90;94.80;;;;;;5033868;28;20041;-70
2020/12/10 06:07:31;;;;;;;39.40;23.60;;;0.90;94.80;;;;;;5033168;28;20030;-70
2020/12/10 06:09:58;;;;;;;36.17;21.77;;;0.90;94.80;;;;;;5033605;28;20025;-70
2020/12/10 06:12:25;;;;;;;38.30;21.77;;;0.90;95.10;;;;;;5033853;28;20036;-71
2020/12/10 06:14:55;;;;;;;39.20;23.45;;;0.90;94.90;;;;;;5033506;28;20057;-71
2020/12/10 06:17:21;;;;;;;36.83;22.83;;;0.90;94.90;;;;;;5016159;28;20026;-70
2020/12/10 06:19:47;;;;;;;38.78;23.48;;;0.90;95.00;;;;;;5016004;28;20029;-70
2020/12/10 06:22:29;;;;;;;34.33;22.10;;;0.90;95.00;;;;;;5032875;28;20018;-72
2020/12/10 06:24:59;;;;;;;39.65;22.38;;;0.90;95.00;;;;;;5033729;28;20049;-72
2020/12/10 06:27:33;;;;;;;39.60;22.60;;;0.90;95.00;;;;;;5032815;28;20576;-72
2020/12/10 06:30:12;;;;;;;40.80;23.23;;;0.80;94.90;;;;;;5033365;28;20151;-71
2020/12/10 06:32:44;;;;;;;38.28;22.67;;;0.90;95.20;;;;;;5015757;28;20029;-70
2020/12/10 06:35:30;;;;;;;36.42;23.05;;;0.90;95.00;;;;;;5032412;28;20025;-70
2020/12/10 06:37:56;;;;;;;38.80;23.65;;;0.90;95.00;;;;;;5033164;28;20018;-72
2020/12/10 06:40:31;;;;;;;37.55;23.67;;;0.90;95.00;;;;;;5033472;28;20022;-72
2020/12/10 06:42:56;;;;;;;35.60;22.42;;;0.90;95.00;;;;;;5012340;28;20159;-71
2020/12/10 06:45:42;;;;;;;36.03;21.75;;;1.00;94.90;;;;;;5037822;28;20028;-71
2020/12/10 06:48:17;;;;;;;37.72;22.17;;;0.90;94.90;;;;;;5033629;28;20509;-71
2020/12/10 06:50:43;;;;;;;37.35;23.25;;;0.90;94.90;;;;;;5038365;28;20013;-73
2020/12/10 06:53:21;;;;;;;37.10;23.08;;;0.90;94.90;;;;;;5039788;28;20032;-72
2020/12/10 06:56:04;;;;;;;36.50;23.65;;;0.90;94.80;;;;;;5016773;28;20024;-71
2020/12/10 06:58:36;;;;;;;37.92;23.48;;;0.90;94.80;;;;;;5035689;28;20021;-71
2020/12/10 07:01:23;;;;;;;39.00;22.48;;;1.00;94.90;;;;;;5026332;28;20033;-71
2020/12/10 07:03:52;;;;;;;35.38;22.52;;;1.00;94.80;;;;;;5026711;28;20063;-71
2020/12/10 07:06:20;;;;;;;37.78;22.85;;;1.00;94.80;;;;;;5022111;28;20048;-70
2020/12/10 07:09:06;;;;;;;37.15;21.95;;;1.10;94.80;;;;;;5041482;28;20029;-72
2020/12/10 07:11:32;;;;;;;39.65;23.13;;;1.10;94.60;;;;;;5020038;28;20066;-72
2020/12/10 07:13:59;;;;;;;36.92;22.35;;;1.10;94.60;;;;;;5020386;28;20067;-71
2020/12/10 07:16:32;;;;;;;33.80;22.15;;;1.10;94.60;;;;;;5037659;28;20049;-74
2020/12/10 07:18:58;;;;;;;35.80;22.13;;;1.10;94.60;;;;;;5003331;28;20038;-76
2020/12/10 07:21:24;;;;;;;35.97;22.48;;;1.00;94.50;;;;;;5034152;28;20028;-72
2020/12/10 07:23:53;;;;;;;39.45;22.48;;;1.10;94.60;;;;;;5028199;28;20021;-72
2020/12/10 07:26:18;;;;;;;38.10;22.95;;;1.00;94.50;;;;;;5015098;28;20060;-71
2020/12/10 07:28:47;;;;;;;39.15;23.33;;;1.00;94.50;;;;;;5014819;28;20465;-72
2020/12/10 07:31:16;;;;;;;38.28;23.83;;;1.00;94.50;;;;;;5031817;28;20128;-72
2020/12/10 07:33:42;;;;;;;37.60;23.70;;;1.00;94.50;;;;;;5015233;28;20352;-70
2020/12/10 07:36:08;;;;;;;40.25;23.75;;;1.00;94.50;;;;;;5014620;28;20028;-71
2020/12/10 07:38:34;;;;;;;41.20;23.40;;;1.00;94.50;;;;;;5014288;28;20017;-74
2020/12/10 07:41:00;;;;;;;37.90;21.55;;;1.00;94.50;;;;;;5032550;28;20040;-71
2020/12/10 07:43:26;;;;;;;33.97;21.08;;;1.00;94.50;;;;;;5014271;28;20026;-70
2020/12/10 07:45:53;;;;;;;39.85;23.08;;;1.00;94.40;;;;;;5013899;28;20033;-71
2020/12/10 07:48:19;;;;;;;37.97;21.95;;;1.10;94.40;;;;;;5032366;28;20057;-72
2020/12/10 07:50:46;;;;;;;36.85;22.38;;;1.20;94.20;;;;;;5032832;28;20064;-78
2020/12/10 07:53:12;;;;;;;33.88;21.27;;;1.30;94.10;;;;;;5031637;28;20498;-70
2020/12/10 07:55:52;;;;;;;38.10;23.35;;;1.40;93.90;;;;;;5014909;28;20032;-71
2020/12/10 07:58:55;;;;;;;35.90;23.83;;;1.50;93.80;;;;;;5032583;28;20025;-71
2020/12/10 08:01:21;;;;;;;40.70;23.13;;;1.60;93.70;;;;;;5014054;28;20504;-77
2020/12/10 08:04:17;;;;;;;41.97;23.33;;;1.60;93.60;;;;;;5032387;28;20037;-71
2020/12/10 08:06:44;;;;;;;39.10;23.25;;;1.60;93.60;;;;;;5024722;28;20033;-75
2020/12/10 08:09:10;;;;;;;36.60;22.55;;;1.60;93.60;;;;;;5032620;28;20048;-71
2020/12/10 08:11:50;;;;;;;38.30;23.30;;;1.50;93.60;;;;;;5036067;28;20482;-71
2020/12/10 08:14:26;;;;;;;38.55;21.70;;;1.50;93.60;;;;;;5024434;28;20112;-72
2020/12/10 08:16:52;;;;;;;38.58;23.58;;;1.50;93.60;;;;;;5035961;28;20466;-71
2020/12/10 08:19:20;;;;;;;32.58;21.80;;;1.50;93.60;;;;;;5018226;28;20078;-72
2020/12/10 08:21:48;;;;;;;37.55;23.48;;;1.50;93.60;;;;;;5035566;28;20053;-72
2020/12/10 08:24:32;;;;;;;36.63;23.20;;;1.60;93.70;;;;;;5035904;28;20049;-70
2020/12/10 08:26:58;;;;;;;38.42;23.95;;;1.60;93.70;;;;;;5034316;28;20452;-70
2020/12/10 08:29:23;;;;;;;36.05;22.98;;;1.70;93.60;;;;;;5015921;28;20046;-70
2020/12/10 08:31:49;;;;;;;36.28;23.33;;;1.70;93.50;;;;;;5025140;28;20029;-70
2020/12/10 08:34:16;;;;;;;38.75;24.50;;;1.80;93.50;;;;;;5034733;28;20033;-71
2020/12/10 08:36:42;;;;;;;37.05;22.60;;;1.80;93.40;;;;;;5035622;28;20486;-69
2020/12/10 08:39:08;;;;;;;36.80;23.33;;;1.80;93.40;;;;;;5014490;28;20018;-70
2020/12/10 08:41:35;;;;;;;40.30;23.77;;;1.80;93.40;;;;;;5014479;28;20031;-74
2020/12/10 08:44:07;;;;;;;43.55;25.08;;;1.80;93.40;;;;;;5055098;28;20017;-71
2020/12/10 08:46:34;;;;;;;39.47;24.45;;;1.90;93.50;;;;;;5021290;28;20045;-71
2020/12/10 08:49:21;;;;;;;39.38;24.42;;;1.80;93.40;;;;;;5034634;28;20029;-74
2020/12/10 08:51:48;;;;;;;41.17;25.60;;;1.90;93.50;;;;;;5035226;28;20484;-71
2020/12/10 08:54:15;;;;;;;39.67;25.38;;;1.90;93.50;;;;;;5016881;28;20068;-71
2020/12/10 08:56:41;;;;;;;41.70;24.92;;;1.90;93.40;;;;;;5034649;28;20027;-70
2020/12/10 08:59:07;;;;;;;41.15;25.23;;;2.00;93.40;;;;;;5032078;28;20112;-71
2020/12/10 09:01:33;;;;;;;47.70;25.83;;;2.00;93.40;;;;;;5036527;28;20100;-71
2020/12/10 09:03:59;;;;;;;40.90;25.05;;;2.00;93.40;;;;;;5037940;28;20474;-72
2020/12/10 09:06:32;;;;;;;45.38;26.35;;;2.00;93.40;;;;;;5026196;28;20128;-70
2020/12/10 09:08:58;;;;;;;41.30;25.25;;;2.00;93.40;;;;;;4996881;28;20092;-71
2020/12/10 09:11:23;;;;;;;41.75;26.85;;;1.90;93.40;;;;;;5024375;28;20029;-71
2020/12/10 09:13:49;;;;;;;38.80;25.10;;;1.90;93.40;;;;;;5034488;28;20021;-72
2020/12/10 09:16:16;;;;;;;42.13;25.58;;;1.90;93.50;;;;;;5016313;28;20052;-71
2020/12/10 09:18:42;;;;;;;40.72;25.73;;;1.90;93.50;;;;;;5034581;28;20382;-71
2020/12/10 09:21:08;;;;;;;42.45;27.35;;;1.90;93.50;;;;;;5034927;28;20022;-71
2020/12/10 09:23:43;;;;;;;45.50;25.77;;;1.90;93.50;;;;;;5016476;28;20025;-69
2020/12/10 09:26:08;;;;;;;41.30;26.23;;;1.90;93.50;;;;;;5033428;28;20551;-71
2020/12/10 09:28:34;;;;;;;40.85;26.50;;;1.90;93.50;;;;;;5032000;28;20128;-71
2020/12/10 09:30:59;;;;;;;43.60;26.90;;;1.90;93.70;;;;;;5033871;28;20033;-70
2020/12/10 09:33:25;;;;;;;42.17;25.60;;;1.90;93.40;;;;;;5031508;28;20033;-72
2020/12/10 09:35:50;;;;;;;39.35;25.00;;;1.90;93.40;;;;;;5014970;28;20395;-71
2020/12/10 09:38:16;;;;;;;41.47;25.95;;;1.90;93.50;;;;;;5026196;28;20113;-73
2020/12/10 09:40:41;;;;;;;44.60;27.70;;;1.90;93.50;;;;;;5026815;28;20389;-75
2020/12/10 09:43:07;;;;;;;39.55;25.50;;;2.00;93.50;;;;;;5016361;28;20071;-71
2020/12/10 09:45:33;;;;;;;46.60;27.40;;;2.00;93.50;;;;;;5015480;28;20032;-74
2020/12/10 09:47:58;;;;;;;43.38;26.38;;;2.10;93.50;;;;;;5033870;28;20477;-78
2020/12/10 09:50:27;;;;;;;41.97;26.88;;;2.10;93.40;;;;;;5016516;28;20057;-71
2020/12/10 09:56:00;;;;;;;42.60;26.92;;;2.20;93.40;;;;;;5034136;28;20113;-73
2020/12/10 09:58:08;;;;;;;44.33;27.08;;;2.30;93.30;;;;;;5032344;28;20041;-73
2020/12/10 10:00:34;;;;;;;40.97;25.63;;;2.30;93.20;;;;;;4997254;28;20022;-76
2020/12/10 10:03:05;;;;;;;42.40;26.42;;;2.40;93.20;;;;;;5002655;28;20079;-79
2020/12/10 10:05:32;;;;;;;41.90;26.83;;;2.40;93.20;;;;;;5019474;28;20025;-78
2020/12/10 10:07:57;;;;;;;45.53;28.00;;;2.50;93.20;;;;;;5034461;28;20073;-76
2020/12/10 10:10:23;;;;;;;46.75;27.83;;;2.50;93.20;;;;;;5015497;28;20059;-75
2020/12/10 10:12:48;;;;;;;40.88;26.17;;;2.50;93.10;;;;;;5015654;28;20022;-77
2020/12/10 10:15:14;;;;;;;44.00;27.80;;;2.60;93.10;;;;;;5033353;28;20447;-72
2020/12/10 10:17:40;;;;;;;46.00;27.98;;;2.60;93.00;;;;;;5033516;28;20021;-76
2020/12/10 10:20:07;;;;;;;49.63;28.80;;;2.60;93.00;;;;;;5015171;28;20107;-75
2020/12/10 10:22:32;;;;;;;42.92;28.58;;;2.70;93.00;;;;;;5015794;28;20037;-73
2020/12/10 10:24:58;;;;;;;45.75;28.15;;;2.70;93.00;;;;;;5015418;28;20018;-73
2020/12/10 10:27:24;;;;;;;46.72;29.73;;;2.70;92.90;;;;;;5032938;28;20046;-73
2020/12/10 10:29:49;;;;;;;46.50;28.73;;;2.70;92.80;;;;;;5032711;28;20038;-72
2020/12/10 10:32:15;;;;;;;47.20;28.77;;;2.80;92.80;;;;;;5015073;28;20030;-73
2020/12/10 10:34:40;;;;;;;48.10;28.35;;;2.80;92.80;;;;;;5014752;28;20025;-72
2020/12/10 10:37:06;;;;;;;50.25;27.48;;;2.80;92.80;;;;;;5032563;28;20034;-70
2020/12/10 10:39:31;;;;;;;44.33;27.88;;;2.80;92.70;;;;;;5033382;28;20052;-77
2020/12/10 10:41:57;;;;;;;42.45;27.95;;;2.90;92.70;;;;;;5014305;28;20029;-72
2020/12/10 10:44:23;;;;;;;40.38;25.75;;;2.90;92.60;;;;;;5015023;28;20041;-74
2020/12/10 10:46:48;;;;;;;39.97;26.17;;;3.00;92.60;;;;;;5015416;28;20124;-74
2020/12/10 10:49:16;;;;;;;43.83;27.02;;;3.00;92.50;;;;;;5032005;28;20026;-73
2020/12/10 10:51:42;;;;;;;39.72;26.65;;;3.00;92.50;;;;;;5015168;28;20040;-73
2020/12/10 10:54:07;;;;;;;44.65;27.58;;;3.10;92.40;;;;;;5033071;28;20444;-79
2020/12/10 10:56:33;;;;;;;42.17;26.95;;;3.10;92.30;;;;;;5032085;28;20513;-75
2020/12/10 10:58:58;;;;;;;39.78;27.65;;;3.20;92.30;;;;;;5014922;28;20025;-78
2020/12/10 11:01:28;;;;;;;40.15;25.55;;;3.20;92.30;;;;;;5031904;28;20471;-71
2020/12/10 11:03:54;;;;;;;49.85;28.95;;;3.20;92.20;;;;;;5014396;28;20022;-75
2020/12/10 11:06:20;;;;;;;45.05;27.42;;;3.20;92.20;;;;;;5032178;28;20320;-72
2020/12/10 11:08:46;;;;;;;44.97;27.92;;;3.30;92.20;;;;;;5025945;28;20036;-71
2020/12/10 11:11:11;;;;;;;40.58;27.42;;;3.30;92.20;;;;;;5044210;28;20116;-72
2020/12/10 11:13:37;;;;;;;44.55;27.35;;;3.30;92.10;;;;;;5029696;28;20110;-73
2020/12/10 11:16:03;;;;;;;40.70;26.83;;;3.30;92.10;;;;;;5031670;28;20091;-72
2020/12/10 11:18:28;;;;;;;43.78;27.85;;;3.30;92.10;;;;;;5033103;28;20028;-71
2020/12/10 11:20:54;;;;;;;42.30;27.63;;;3.40;92.10;;;;;;5032531;28;20021;-73
2020/12/10 11:23:20;;;;;;;38.45;26.23;;;3.40;92.10;;;;;;5031830;28;20025;-72
2020/12/10 11:25:46;;;;;;;44.53;26.92;;;3.40;92.00;;;;;;5014455;28;20033;-71
2020/12/10 11:28:11;;;;;;;40.80;26.38;;;3.50;92.00;;;;;;5032436;28;20030;-69
2020/12/10 11:30:37;;;;;;;47.88;26.25;;;3.50;92.00;;;;;;5032021;28;20049;-71
2020/12/10 11:33:02;;;;;;;41.83;27.38;;;3.60;92.00;;;;;;5014792;28;20029;-72
2020/12/10 11:35:28;;;;;;;42.42;27.70;;;3.60;91.90;;;;;;5015413;28;20109;-70
2020/12/10 11:37:55;;;;;;;44.35;24.92;;;3.70;91.90;;;;;;5031623;28;20021;-70
2020/12/10 11:40:23;;;;;;;40.35;27.48;;;3.70;91.80;;;;;;5015070;28;20064;-71
2020/12/10 11:42:49;;;;;;;37.00;26.05;;;3.70;91.80;;;;;;5032870;28;20121;-70
2020/12/10 11:45:15;;;;;;;38.95;25.75;;;3.70;91.80;;;;;;5035984;28;20021;-70
2020/12/10 11:47:41;;;;;;;41.83;26.75;;;3.80;91.70;;;;;;5036681;28;20033;-71
2020/12/10 11:50:07;;;;;;;40.60;26.45;;;3.80;91.70;;;;;;5018564;28;20382;-70
2020/12/10 11:52:32;;;;;;;42.22;26.17;;;3.80;91.70;;;;;;5036036;28;20030;-74
2020/12/10 11:54:57;;;;;;;38.58;26.95;;;3.90;91.60;;;;;;5036598;28;20024;-73
2020/12/10 11:57:25;;;;;;;43.60;27.30;;;3.90;91.60;;;;;;5018884;28;20029;-73
2020/12/10 11:59:51;;;;;;;36.05;25.15;;;3.90;91.50;;;;;;5036125;28;20017;-73
2020/12/10 12:02:17;;;;;;;41.28;26.95;;;3.90;91.40;;;;;;5018771;28;20482;-71
2020/12/10 12:04:43;;;;;;;41.85;28.15;;;3.90;91.40;;;;;;5035924;28;20040;-75
2020/12/10 12:07:08;;;;;;;43.75;28.55;;;4.00;91.40;;;;;;5036184;28;20069;-73
2020/12/10 12:09:34;;;;;;;42.45;27.30;;;4.00;91.30;;;;;;5036323;28;20053;-74
2020/12/10 12:12:03;;;;;;;42.33;27.50;;;4.10;91.20;;;;;;5035210;28;20029;-75
2020/12/10 12:14:28;;;;;;;36.05;26.20;;;4.10;91.20;;;;;;5036199;28;20025;-73
2020/12/10 12:16:54;;;;;;;39.70;27.73;;;4.20;91.20;;;;;;5035916;28;20083;-75
2020/12/10 12:19:20;;;;;;;40.58;26.58;;;4.30;91.20;;;;;;5035493;28;20533;-71
2020/12/10 12:21:45;;;;;;;41.85;28.08;;;4.40;91.10;;;;;;5036001;28;20545;-75
2020/12/10 12:24:11;;;;;;;39.75;27.77;;;4.40;91.00;;;;;;5018012;28;20017;-74
2020/12/10 12:26:36;;;;;;;39.72;26.65;;;4.40;90.90;;;;;;5035108;28;20509;-73
2020/12/10 12:29:02;;;;;;;40.45;27.45;;;4.40;90.70;;;;;;5035005;28;20045;-74
2020/12/10 12:31:33;;;;;;;39.05;27.08;;;4.40;90.70;;;;;;5016899;28;20119;-75
2020/12/10 12:33:58;;;;;;;41.35;26.90;;;4.40;90.70;;;;;;5033681;28;20028;-71
2020/12/10 12:36:24;;;;;;;41.60;27.77;;;4.50;90.60;;;;;;5016814;28;20021;-74
2020/12/10 12:38:50;;;;;;;44.78;29.10;;;4.40;90.60;;;;;;5034566;28;20462;-73
2020/12/10 12:41:16;;;;;;;39.35;26.98;;;4.40;90.60;;;;;;5033472;28;20080;-71
2020/12/10 12:43:41;;;;;;;39.50;27.38;;;4.40;90.60;;;;;;5034403;28;20036;-71